This is the latest recevied weather packets stored in our database for station/object K4OAM-13. If no packets are shown the sender has not sent any weather packets the latest 10 day(s).
| Time | Temp. | Humidity | Pressure | Rain* | Wind** | Luminosity | Snow |
|---|---|---|---|---|---|---|---|
| 1777498994 | 6.67° C | 65% | 1013.6 hPa | - | - | - | - |
| 1777498077 | 6.67° C | 65% | 1013.4 hPa | - | - | - | - |
| 1777493277 | 7.78° C | 62% | 1013.3 hPa | - | - | - | - |
| 1777488777 | 8.89° C | 59% | 1012.8 hPa | - | - | - | - |
| 1777485780 | 8.89° C | 57% | 1012.4 hPa | - | - | - | - |
| 1777484277 | 8.89° C | 58% | 1012.7 hPa | - | - | - | - |
| 1777481577 | 8.89° C | 59% | 1013.5 hPa | - | - | - | - |
| 1777480393 | 8.33° C | 59% | 1013.9 hPa | - | - | - | - |
| 1777479493 | 8.33° C | 60% | 1014.2 hPa | - | - | - | - |
| 1777476793 | 8.33° C | 60% | 1015 hPa | - | - | - | - |
| 1777475577 | 8.33° C | 61% | 1015 hPa | - | - | - | - |
| 1777475277 | 7.78° C | 61% | 1015 hPa | - | - | - | - |
| 1777474377 | 7.78° C | 63% | 1015.1 hPa | - | - | - | - |
| 1777471393 | 7.22° C | 65% | 1014.7 hPa | - | - | - | - |
| 1777468677 | 6.11° C | 66% | 1015.2 hPa | - | - | - | - |
| 1777467794 | 6.11° C | 67% | 1015.3 hPa | - | - | - | - |
| 1777465677 | 5.56° C | 68% | 1015.3 hPa | - | - | - | - |
| 1777464183 | 5.56° C | 67% | 1015.5 hPa | - | - | - | - |
| 1777461193 | 5° C | 68% | 1014.7 hPa | - | - | - | - |
| 1777459677 | 5° C | 69% | 1014.3 hPa | - | - | - | - |
| 1777459396 | 5° C | 69% | 1014.2 hPa | - | - | - | - |
| 1777459077 | 5° C | 69% | 1013.9 hPa | - | - | - | - |
| 1777458477 | 5.56° C | 69% | 1014 hPa | - | - | - | - |
| 1777457877 | 5.56° C | 68% | 1013.7 hPa | - | - | - | - |
| 1777457577 | 5.56° C | 67% | 1013.7 hPa | - | - | - | - |
* Rain since midnight (hover to see other rain measurements)
** Current wind speed in m/s (hover to see current wind gust speed)